createdAt,value
2024-02-02T00:01:46.545Z,3.00
2024-02-02T00:04:13.905Z,3.00
2024-02-02T00:06:40.916Z,3.00
2024-02-02T00:09:08.176Z,3.00
2024-02-02T00:11:35.132Z,3.00
2024-02-02T00:14:02.181Z,3.10
2024-02-02T00:16:32.764Z,3.10
2024-02-02T00:18:59.549Z,3.10
2024-02-02T00:21:26.563Z,3.10
2024-02-02T00:23:53.698Z,3.10
2024-02-02T00:26:20.523Z,3.10
2024-02-02T00:28:47.250Z,3.10
2024-02-02T00:31:14.059Z,3.10
2024-02-02T00:33:40.801Z,3.30
2024-02-02T00:36:07.907Z,3.30
2024-02-02T00:38:34.772Z,3.30
2024-02-02T00:41:01.528Z,3.30
2024-02-02T00:43:28.317Z,3.30
2024-02-02T00:45:55.059Z,3.30
2024-02-02T00:48:21.819Z,3.30
2024-02-02T00:50:48.610Z,3.30
2024-02-02T00:53:15.249Z,3.30
2024-02-02T00:55:41.894Z,3.30
2024-02-02T00:58:08.725Z,3.40
2024-02-02T01:00:38.107Z,3.50
2024-02-02T01:03:06.906Z,3.50
2024-02-02T01:05:35.471Z,3.50
2024-02-02T01:08:03.330Z,3.50
2024-02-02T01:10:30.003Z,3.50
2024-02-02T01:12:56.956Z,3.50
2024-02-02T01:15:23.958Z,3.50
2024-02-02T01:17:50.788Z,3.50
2024-02-02T01:20:17.489Z,3.50
2024-02-02T01:22:46.613Z,3.50
2024-02-02T01:25:15.023Z,3.60
2024-02-02T01:27:42.251Z,3.60
2024-02-02T01:30:09.703Z,3.60
2024-02-02T01:32:36.853Z,3.60
2024-02-02T01:35:04.291Z,3.60
2024-02-02T01:37:31.615Z,3.70
2024-02-02T01:39:58.256Z,3.60
2024-02-02T01:42:25.051Z,3.70
2024-02-02T01:44:53.164Z,3.70
2024-02-02T01:47:21.168Z,3.80
2024-02-02T01:49:49.544Z,3.80
2024-02-02T01:52:16.674Z,3.80
2024-02-02T01:54:43.360Z,3.80
2024-02-02T01:57:10.331Z,3.80
2024-02-02T01:59:37.638Z,3.80
2024-02-02T02:02:04.835Z,3.80
2024-02-02T02:04:31.938Z,3.80
2024-02-02T02:06:58.865Z,3.80
2024-02-02T02:09:25.832Z,3.80
2024-02-02T02:11:53.159Z,3.70
2024-02-02T02:14:19.949Z,3.70
2024-02-02T02:16:46.954Z,3.70
2024-02-02T02:19:15.220Z,3.70
2024-02-02T02:21:42.465Z,3.60
2024-02-02T02:24:12.578Z,3.60
2024-02-02T02:26:40.115Z,3.50
2024-02-02T02:29:09.668Z,3.50
2024-02-02T02:31:36.475Z,3.50
2024-02-02T02:34:04.074Z,3.40
2024-02-02T02:36:31.184Z,3.40
2024-02-02T02:38:58.003Z,3.40
2024-02-02T02:41:24.851Z,3.30
2024-02-02T02:43:51.991Z,3.30
2024-02-02T02:46:19.659Z,3.30
2024-02-02T02:48:46.755Z,3.30
2024-02-02T02:51:13.741Z,3.20
2024-02-02T02:53:40.452Z,3.20
2024-02-02T02:56:07.644Z,3.20
2024-02-02T02:58:35.673Z,3.20
2024-02-02T03:01:02.503Z,3.10
2024-02-02T03:03:29.475Z,3.10
2024-02-02T03:05:56.227Z,3.10
2024-02-02T03:08:23.054Z,3.10
2024-02-02T03:10:49.757Z,3.10
2024-02-02T03:13:17.611Z,3.10
2024-02-02T03:15:44.275Z,3.00
2024-02-02T03:18:13.729Z,3.00
2024-02-02T03:20:40.500Z,2.90
2024-02-02T03:23:07.172Z,2.80
2024-02-02T03:25:33.777Z,2.70
2024-02-02T03:28:00.742Z,2.60
2024-02-02T03:30:28.621Z,2.40
2024-02-02T03:32:55.722Z,2.30
2024-02-02T03:35:23.283Z,2.20
2024-02-02T03:37:50.080Z,2.20
2024-02-02T03:40:16.840Z,2.10
2024-02-02T03:42:43.474Z,2.00
2024-02-02T03:45:10.421Z,2.00
2024-02-02T03:47:37.322Z,1.90
2024-02-02T03:50:04.692Z,1.90
2024-02-02T03:52:33.772Z,1.80
2024-02-02T03:55:00.431Z,1.80
2024-02-02T03:57:27.253Z,1.80
2024-02-02T03:59:56.750Z,1.80
2024-02-02T04:02:23.584Z,1.80
2024-02-02T04:04:50.365Z,1.80
2024-02-02T04:07:17.173Z,1.70
2024-02-02T04:09:44.944Z,1.80
2024-02-02T04:12:11.718Z,1.80
2024-02-02T04:14:38.424Z,1.80
2024-02-02T04:17:05.191Z,1.80
2024-02-02T04:19:32.057Z,1.90
2024-02-02T04:21:58.826Z,1.90
2024-02-02T04:24:25.585Z,1.90
2024-02-02T04:26:53.060Z,1.90
2024-02-02T04:29:19.915Z,1.90
2024-02-02T04:31:46.754Z,1.90
2024-02-02T04:34:13.761Z,2.00
2024-02-02T04:36:40.570Z,2.00
2024-02-02T04:39:07.496Z,2.00
2024-02-02T04:41:34.210Z,2.00
2024-02-02T04:44:01.009Z,2.00
2024-02-02T04:46:27.913Z,2.10
2024-02-02T04:48:54.866Z,2.10
2024-02-02T04:51:21.697Z,2.10
2024-02-02T04:53:48.495Z,2.10
2024-02-02T04:56:15.247Z,2.10
2024-02-02T04:58:42.246Z,2.20
2024-02-02T05:01:09.092Z,2.20
2024-02-02T05:03:36.156Z,2.20
2024-02-02T05:06:03.041Z,2.20
2024-02-02T05:08:29.846Z,2.20
2024-02-02T05:10:56.708Z,2.20
2024-02-02T05:13:23.389Z,2.30
2024-02-02T05:15:50.270Z,2.30
2024-02-02T05:18:17.229Z,2.30
2024-02-02T05:20:44.367Z,2.30
2024-02-02T05:23:12.284Z,2.30
2024-02-02T05:25:39.120Z,2.30
2024-02-02T05:28:06.116Z,2.30
2024-02-02T05:30:32.964Z,2.30
2024-02-02T05:33:01.997Z,2.30
2024-02-02T05:35:28.744Z,2.30
2024-02-02T05:37:55.373Z,2.30
2024-02-02T05:40:22.334Z,2.30
2024-02-02T05:42:48.910Z,2.30
2024-02-02T05:45:15.893Z,2.30
2024-02-02T05:47:42.613Z,2.30
2024-02-02T05:50:10.771Z,2.30
2024-02-02T05:52:37.384Z,2.40
2024-02-02T05:55:04.697Z,2.40
2024-02-02T05:57:31.421Z,2.40
2024-02-02T05:59:58.058Z,2.40
2024-02-02T06:02:24.805Z,2.40
2024-02-02T06:04:52.517Z,2.50
2024-02-02T06:07:20.363Z,2.50
2024-02-02T06:09:47.134Z,2.50
2024-02-02T06:12:14.053Z,2.50
2024-02-02T06:14:41.022Z,2.50
2024-02-02T06:17:10.300Z,2.50
2024-02-02T06:19:37.456Z,2.50
2024-02-02T06:22:04.150Z,2.60
2024-02-02T06:24:30.965Z,2.60
2024-02-02T06:26:57.693Z,2.60
2024-02-02T06:29:27.306Z,2.60
2024-02-02T06:31:55.443Z,2.60
2024-02-02T06:34:23.094Z,2.60
2024-02-02T06:36:50.023Z,2.60
2024-02-02T06:39:16.706Z,2.60
2024-02-02T06:41:43.544Z,2.60
2024-02-02T06:44:10.226Z,2.70
2024-02-02T06:46:36.996Z,2.70
2024-02-02T06:49:04.645Z,2.70
2024-02-02T06:51:31.467Z,2.80
2024-02-02T06:53:58.298Z,2.80
2024-02-02T06:56:31.790Z,2.80
2024-02-02T06:58:58.420Z,2.80
2024-02-02T07:01:25.322Z,2.90
2024-02-02T07:03:52.192Z,2.90
2024-02-02T07:06:19.734Z,3.00
2024-02-02T07:08:46.596Z,3.10
2024-02-02T07:11:13.226Z,3.10
2024-02-02T07:13:50.630Z,3.10
2024-02-02T07:16:39.285Z,3.20
2024-02-02T07:19:18.258Z,3.30
2024-02-02T07:21:45.015Z,3.50
2024-02-02T07:24:13.550Z,3.60
2024-02-02T07:26:40.938Z,3.70
2024-02-02T07:29:24.645Z,3.80
2024-02-02T07:31:51.345Z,3.90
2024-02-02T07:34:24.183Z,4.00
2024-02-02T07:36:50.865Z,4.10
2024-02-02T07:39:29.518Z,4.20
2024-02-02T07:41:56.273Z,4.20
2024-02-02T07:44:23.348Z,4.30
2024-02-02T07:46:50.063Z,4.40
2024-02-02T07:49:16.998Z,4.40
2024-02-02T07:51:46.601Z,4.60
2024-02-02T07:54:14.710Z,4.70
2024-02-02T07:56:41.675Z,4.80
2024-02-02T07:59:08.345Z,4.90
2024-02-02T08:01:35.280Z,5.00
2024-02-02T08:04:02.700Z,5.00
2024-02-02T08:06:30.255Z,5.10
2024-02-02T08:08:58.437Z,5.20
2024-02-02T08:11:27.039Z,5.30
2024-02-02T08:13:53.748Z,5.30
2024-02-02T08:16:20.683Z,5.40
2024-02-02T08:18:47.468Z,5.40
2024-02-02T08:21:14.542Z,5.60
2024-02-02T08:23:41.556Z,5.60
2024-02-02T08:26:08.668Z,5.80
2024-02-02T08:28:42.278Z,5.80
2024-02-02T08:31:15.567Z,6.00
2024-02-02T08:33:43.838Z,6.10
2024-02-02T08:36:11.746Z,6.30
2024-02-02T08:38:38.743Z,6.30
2024-02-02T08:41:06.048Z,6.30
2024-02-02T08:43:32.667Z,6.40
2024-02-02T08:46:02.643Z,6.50
2024-02-02T08:48:29.596Z,6.50
2024-02-02T08:50:58.573Z,6.60
2024-02-02T08:53:25.553Z,6.50
2024-02-02T08:55:52.937Z,6.50
2024-02-02T08:58:26.644Z,6.40
2024-02-02T09:00:54.445Z,6.40
2024-02-02T09:03:37.532Z,6.50
2024-02-02T09:06:09.121Z,6.60
2024-02-02T09:08:42.888Z,6.80
2024-02-02T09:11:11.547Z,6.90
2024-02-02T09:13:41.379Z,7.00
2024-02-02T09:16:12.953Z,7.10
2024-02-02T09:18:40.685Z,7.30
2024-02-02T09:21:08.908Z,7.50
2024-02-02T09:23:36.493Z,7.70
2024-02-02T09:26:26.599Z,7.90
2024-02-02T09:29:01.585Z,8.00
2024-02-02T09:31:31.712Z,8.10
2024-02-02T09:33:58.920Z,8.30
2024-02-02T09:36:29.811Z,8.40
2024-02-02T09:39:01.499Z,8.50
2024-02-02T09:41:41.758Z,8.60
2024-02-02T09:44:20.784Z,8.70
2024-02-02T09:46:56.848Z,8.70
2024-02-02T09:49:27.720Z,8.80
2024-02-02T09:52:14.027Z,8.90
2024-02-02T09:54:40.795Z,8.90
2024-02-02T09:57:16.437Z,9.20
2024-02-02T10:00:02.672Z,9.30
2024-02-02T10:02:43.035Z,9.30
2024-02-02T10:05:11.748Z,9.30
2024-02-02T10:07:47.713Z,9.30
2024-02-02T10:10:23.824Z,9.40
2024-02-02T10:13:20.244Z,9.50
2024-02-02T10:15:52.249Z,9.60
2024-02-02T10:18:44.515Z,9.60
2024-02-02T10:21:20.912Z,9.60
2024-02-02T10:24:18.928Z,9.70
2024-02-02T10:26:54.235Z,9.70
2024-02-02T10:29:28.430Z,9.70
2024-02-02T10:31:57.016Z,9.60
2024-02-02T10:34:29.975Z,9.60
2024-02-02T10:37:15.339Z,9.60
2024-02-02T10:39:46.839Z,9.50
2024-02-02T10:42:37.113Z,9.50
2024-02-02T10:45:09.846Z,9.50
2024-02-02T10:47:36.670Z,9.50
2024-02-02T10:50:20.787Z,9.50
2024-02-02T10:53:06.720Z,9.50
2024-02-02T10:55:43.502Z,9.50
2024-02-02T10:58:12.981Z,9.80
2024-02-02T11:00:52.625Z,9.80
2024-02-02T11:03:29.326Z,9.80
2024-02-02T11:06:12.573Z,9.80
2024-02-02T11:08:42.292Z,9.70
2024-02-02T11:11:10.238Z,9.50
2024-02-02T11:13:55.879Z,9.30
2024-02-02T11:16:38.410Z,9.10
2024-02-02T11:19:08.047Z,9.00
2024-02-02T11:21:46.432Z,8.80
2024-02-02T11:24:17.660Z,8.70
2024-02-02T11:26:53.616Z,8.70
2024-02-02T11:29:39.261Z,8.70
2024-02-02T11:32:22.963Z,8.60
2024-02-02T11:35:10.708Z,8.60
2024-02-02T11:37:48.381Z,8.60
2024-02-02T11:40:16.145Z,8.70
2024-02-02T11:42:44.711Z,8.90
2024-02-02T11:45:13.439Z,9.10
2024-02-02T11:47:43.464Z,9.20
2024-02-02T11:50:12.272Z,9.30
2024-02-02T11:52:43.415Z,9.50
2024-02-02T11:55:17.393Z,9.70
2024-02-02T11:57:51.995Z,9.90
2024-02-02T12:00:25.186Z,10.10
2024-02-02T12:03:13.053Z,10.30
2024-02-02T12:06:03.119Z,10.60
2024-02-02T12:08:37.135Z,10.80
2024-02-02T12:11:08.437Z,10.80
2024-02-02T12:13:36.958Z,10.80
2024-02-02T12:16:05.560Z,10.70
2024-02-02T12:18:32.500Z,10.50
2024-02-02T12:21:00.577Z,10.40
2024-02-02T12:23:27.205Z,10.20
2024-02-02T12:25:54.145Z,10.10
2024-02-02T12:28:20.762Z,10.00
2024-02-02T12:30:47.428Z,10.00
2024-02-02T12:33:14.260Z,10.00
2024-02-02T12:35:43.094Z,10.00
2024-02-02T12:38:19.555Z,10.20
2024-02-02T12:40:46.333Z,10.20
2024-02-02T12:43:12.957Z,10.10
2024-02-02T12:45:39.700Z,10.00
2024-02-02T12:48:10.938Z,9.90
2024-02-02T12:50:37.882Z,9.70
2024-02-02T12:53:05.266Z,9.40
2024-02-02T12:55:32.125Z,9.40
2024-02-02T12:57:58.855Z,9.30
2024-02-02T13:00:28.702Z,9.30
2024-02-02T13:02:56.983Z,9.30
2024-02-02T13:05:25.987Z,9.40
2024-02-02T13:07:53.169Z,9.40
2024-02-02T13:10:58.177Z,9.30
2024-02-02T13:13:30.312Z,9.30
2024-02-02T13:15:57.207Z,9.30
2024-02-02T13:18:25.885Z,9.20
2024-02-02T13:20:55.278Z,9.20
2024-02-02T13:23:26.693Z,9.30
2024-02-02T13:25:54.773Z,9.30
2024-02-02T13:28:21.522Z,9.40
2024-02-02T13:30:56.753Z,9.50
2024-02-02T13:33:27.559Z,9.60
2024-02-02T13:35:55.577Z,9.70
2024-02-02T13:38:24.063Z,9.80
2024-02-02T13:40:52.942Z,9.80
2024-02-02T13:43:19.979Z,9.80
2024-02-02T13:45:48.194Z,9.80
2024-02-02T13:48:16.409Z,9.80
2024-02-02T13:51:02.939Z,9.80
2024-02-02T13:53:29.978Z,9.80
2024-02-02T13:55:57.052Z,9.80
2024-02-02T13:58:24.892Z,9.80
2024-02-02T14:00:52.851Z,9.70
2024-02-02T14:03:22.507Z,9.50
2024-02-02T14:05:49.809Z,9.40
2024-02-02T14:08:18.367Z,9.30
2024-02-02T14:10:49.322Z,9.30
2024-02-02T14:13:18.069Z,9.20
2024-02-02T14:15:45.828Z,9.10
2024-02-02T14:18:13.471Z,9.10
2024-02-02T14:20:40.880Z,8.90
2024-02-02T14:23:14.199Z,8.80
2024-02-02T14:25:41.354Z,8.70
2024-02-02T14:28:15.595Z,8.60
2024-02-02T14:30:42.795Z,8.60
2024-02-02T14:33:17.918Z,8.40
2024-02-02T14:35:51.471Z,8.40
2024-02-02T14:38:18.132Z,8.30
2024-02-02T14:40:44.787Z,8.30
2024-02-02T14:43:11.761Z,8.30
2024-02-02T14:45:38.486Z,8.30
2024-02-02T14:48:05.402Z,8.20
2024-02-02T14:50:32.315Z,8.20
2024-02-02T14:52:59.286Z,8.20
2024-02-02T14:55:26.100Z,8.30
2024-02-02T14:57:52.796Z,8.30
2024-02-02T15:00:22.775Z,8.30
2024-02-02T15:02:53.163Z,8.30
2024-02-02T15:05:19.838Z,8.30
2024-02-02T15:07:46.663Z,8.30
2024-02-02T15:10:13.801Z,8.30
2024-02-02T15:12:46.928Z,8.30
2024-02-02T15:15:13.757Z,8.30
2024-02-02T15:17:40.530Z,8.30
2024-02-02T15:20:11.042Z,8.30
2024-02-02T15:22:38.012Z,8.30
2024-02-02T15:25:06.700Z,8.20
2024-02-02T15:27:37.535Z,8.20
2024-02-02T15:30:06.235Z,8.20
2024-02-02T15:32:32.992Z,8.20
2024-02-02T15:35:00.776Z,8.20
2024-02-02T15:37:27.513Z,8.20
2024-02-02T15:40:00.660Z,8.20
2024-02-02T15:42:29.630Z,8.20
2024-02-02T15:44:59.094Z,8.10
2024-02-02T15:47:29.069Z,8.10
2024-02-02T15:49:57.361Z,8.10
2024-02-02T15:52:24.133Z,8.00
2024-02-02T15:54:50.855Z,8.00
2024-02-02T15:57:17.548Z,8.00
2024-02-02T15:59:44.243Z,7.90
2024-02-02T16:02:10.920Z,7.90
2024-02-02T16:04:37.638Z,7.90
2024-02-02T16:07:06.599Z,7.90
2024-02-02T16:09:38.186Z,7.80
2024-02-02T16:12:09.032Z,7.80
2024-02-02T16:14:35.747Z,7.80
2024-02-02T16:17:03.360Z,7.80
2024-02-02T16:19:30.595Z,7.80
2024-02-02T16:21:57.515Z,7.80
2024-02-02T16:24:24.278Z,7.70
2024-02-02T16:26:50.992Z,7.70
2024-02-02T16:29:17.663Z,7.70
2024-02-02T16:31:45.005Z,7.60
2024-02-02T16:34:12.100Z,7.60
2024-02-02T16:36:39.864Z,7.50
2024-02-02T16:39:12.764Z,7.50
2024-02-02T16:41:40.190Z,7.50
2024-02-02T16:44:07.331Z,7.40
2024-02-02T16:46:41.365Z,7.40
2024-02-02T16:49:08.474Z,7.40
2024-02-02T16:51:37.683Z,7.50
2024-02-02T16:54:06.565Z,7.50
2024-02-02T16:56:33.537Z,7.50
2024-02-02T16:59:00.314Z,7.50
2024-02-02T17:01:30.191Z,7.50
2024-02-02T17:03:58.479Z,7.50
2024-02-02T17:06:25.579Z,7.50
2024-02-02T17:08:53.903Z,7.50
2024-02-02T17:11:20.890Z,7.50
2024-02-02T17:13:50.275Z,7.40
2024-02-02T17:16:19.437Z,7.50
2024-02-02T17:18:46.378Z,7.50
2024-02-02T17:21:13.514Z,7.50
2024-02-02T17:23:40.415Z,7.50
2024-02-02T17:26:16.954Z,7.50
2024-02-02T17:28:50.439Z,7.50
2024-02-02T17:31:18.355Z,7.50
2024-02-02T17:33:45.317Z,7.50
2024-02-02T17:36:15.784Z,7.50
2024-02-02T17:38:46.812Z,7.60
2024-02-02T17:41:15.042Z,7.60
2024-02-02T17:43:42.665Z,7.60
2024-02-02T17:46:10.764Z,7.60
2024-02-02T17:48:37.582Z,7.60
2024-02-02T17:51:07.024Z,7.60
2024-02-02T17:53:34.228Z,7.60
2024-02-02T17:56:10.539Z,7.60
2024-02-02T17:58:38.511Z,7.60
2024-02-02T18:01:06.795Z,7.50
2024-02-02T18:03:34.727Z,7.50
2024-02-02T18:06:05.485Z,7.40
2024-02-02T18:08:35.435Z,7.40
2024-02-02T18:11:05.229Z,7.40
2024-02-02T18:13:32.013Z,7.40
2024-02-02T18:16:01.460Z,7.40
2024-02-02T18:18:28.726Z,7.40
2024-02-02T18:20:57.827Z,7.40
2024-02-02T18:23:33.746Z,7.30
2024-02-02T18:26:00.372Z,7.30
2024-02-02T18:28:28.927Z,7.20
2024-02-02T18:30:56.634Z,7.10
2024-02-02T18:33:23.559Z,7.00
2024-02-02T18:35:51.793Z,6.80
2024-02-02T18:38:21.308Z,6.70
2024-02-02T18:40:51.291Z,6.60
2024-02-02T18:43:18.772Z,6.50
2024-02-02T18:45:45.957Z,6.40
2024-02-02T18:48:14.126Z,6.30
2024-02-02T18:50:41.080Z,6.30
2024-02-02T18:53:07.708Z,6.20
2024-02-02T18:55:34.751Z,6.20
2024-02-02T18:58:01.791Z,6.10
2024-02-02T19:00:28.764Z,6.00
2024-02-02T19:02:55.571Z,6.00
2024-02-02T19:05:22.372Z,5.90
2024-02-02T19:07:49.449Z,5.90
2024-02-02T19:10:17.074Z,5.80
2024-02-02T19:12:44.023Z,5.80
2024-02-02T19:15:12.722Z,5.70
2024-02-02T19:17:39.641Z,5.70
2024-02-02T19:20:06.705Z,5.70
2024-02-02T19:22:33.463Z,5.70
2024-02-02T19:25:00.532Z,5.70
2024-02-02T19:27:30.481Z,5.70
2024-02-02T19:29:57.375Z,5.80
2024-02-02T19:32:24.142Z,5.90
2024-02-02T19:34:53.134Z,6.10
2024-02-02T19:37:21.186Z,6.30
2024-02-02T19:39:48.053Z,6.40
2024-02-02T19:42:14.919Z,6.50
2024-02-02T19:44:42.916Z,6.50
2024-02-02T19:47:10.127Z,6.50
2024-02-02T19:49:39.189Z,6.40
2024-02-02T19:52:06.198Z,6.40
2024-02-02T19:54:36.752Z,6.30
2024-02-02T19:57:06.813Z,6.30
2024-02-02T19:59:33.924Z,6.30
2024-02-02T20:02:03.939Z,6.10
2024-02-02T20:04:30.885Z,6.00
2024-02-02T20:06:57.924Z,5.90
2024-02-02T20:09:25.200Z,5.80
2024-02-02T20:11:52.465Z,5.70
2024-02-02T20:14:19.337Z,5.50
2024-02-02T20:16:46.107Z,5.50
2024-02-02T20:19:13.064Z,5.40
2024-02-02T20:21:39.919Z,5.30
2024-02-02T20:24:07.291Z,5.20
2024-02-02T20:26:34.001Z,5.10
2024-02-02T20:29:00.689Z,5.00
2024-02-02T20:31:27.574Z,5.00
2024-02-02T20:33:56.701Z,5.00
2024-02-02T20:36:27.970Z,5.00
2024-02-02T20:38:55.055Z,5.00
2024-02-02T20:41:26.655Z,4.90
2024-02-02T20:43:54.570Z,4.90
2024-02-02T20:46:21.569Z,4.90
2024-02-02T20:48:48.850Z,4.80
2024-02-02T20:51:17.369Z,4.80
2024-02-02T20:53:46.059Z,4.70
2024-02-02T20:56:13.168Z,4.60
2024-02-02T20:58:40.059Z,4.60
2024-02-02T21:01:07.343Z,4.70
2024-02-02T21:03:34.300Z,4.70
2024-02-02T21:06:02.343Z,4.70
2024-02-02T21:08:29.221Z,4.70
2024-02-02T21:10:56.015Z,4.60
2024-02-02T21:13:23.405Z,4.50
2024-02-02T21:15:50.563Z,4.50
2024-02-02T21:18:17.759Z,4.50
2024-02-02T21:20:46.900Z,4.50
2024-02-02T21:23:14.789Z,4.50
2024-02-02T21:25:42.888Z,4.50
2024-02-02T21:28:09.735Z,4.40
2024-02-02T21:30:36.651Z,4.40
2024-02-02T21:33:03.827Z,4.40
2024-02-02T21:35:30.572Z,4.50
2024-02-02T21:37:57.502Z,4.40
2024-02-02T21:40:24.249Z,4.40
2024-02-02T21:42:50.984Z,4.50
2024-02-02T21:45:17.802Z,4.50
2024-02-02T21:47:45.517Z,4.40
2024-02-02T21:50:12.423Z,4.40
2024-02-02T21:52:40.738Z,4.40
2024-02-02T21:55:07.826Z,4.40
2024-02-02T21:57:34.531Z,4.50
2024-02-02T22:00:03.524Z,4.50
2024-02-02T22:02:30.504Z,4.50
2024-02-02T22:04:57.281Z,4.60
2024-02-02T22:07:27.632Z,4.70
2024-02-02T22:09:55.151Z,4.70
2024-02-02T22:12:21.803Z,4.70
2024-02-02T22:14:48.515Z,4.70
2024-02-02T22:17:16.414Z,4.60
2024-02-02T22:19:43.452Z,4.70
2024-02-02T22:22:10.364Z,4.70
2024-02-02T22:24:40.689Z,4.60
2024-02-02T22:27:07.953Z,4.60
2024-02-02T22:29:35.062Z,4.50
2024-02-02T22:32:02.631Z,4.40
2024-02-02T22:34:29.665Z,4.30
2024-02-02T22:36:56.584Z,4.20
2024-02-02T22:39:23.542Z,4.10
2024-02-02T22:41:50.446Z,4.10
2024-02-02T22:44:17.229Z,4.10
2024-02-02T22:46:44.418Z,4.10
2024-02-02T22:49:11.813Z,4.10
2024-02-02T22:51:46.287Z,4.00
2024-02-02T22:54:13.646Z,4.00
2024-02-02T22:56:40.991Z,3.90
2024-02-02T22:59:07.684Z,4.00
2024-02-02T23:01:35.865Z,4.00
2024-02-02T23:04:03.623Z,3.90
2024-02-02T23:06:34.024Z,3.90
2024-02-02T23:09:00.712Z,3.90
2024-02-02T23:11:27.551Z,3.80
2024-02-02T23:13:54.393Z,3.80
2024-02-02T23:16:21.902Z,3.80
2024-02-02T23:18:49.258Z,3.80
2024-02-02T23:21:16.194Z,3.70
2024-02-02T23:23:44.201Z,3.70
2024-02-02T23:26:11.710Z,3.70
2024-02-02T23:28:39.433Z,3.70
2024-02-02T23:31:06.233Z,3.60
2024-02-02T23:33:33.098Z,3.60
2024-02-02T23:35:59.991Z,3.60
2024-02-02T23:38:26.627Z,3.60
2024-02-02T23:40:53.590Z,3.50
2024-02-02T23:43:20.239Z,3.50
2024-02-02T23:45:47.024Z,3.60
2024-02-02T23:48:15.206Z,3.60
2024-02-02T23:50:43.342Z,3.60
2024-02-02T23:53:10.094Z,3.50
2024-02-02T23:55:37.828Z,3.50
2024-02-02T23:58:07.126Z,3.40
